Time;durP1;ratioP1;P1;durP2;ratioP2;P2;SDS_P1;SDS_P2;PMS_P1;PMS_P2;Temp;Humidity;BMP_temperature;BMP_pressure;BME280_temperature;BME280_humidity;BME280_pressure;Samples;Min_cycle;Max_cycle;Signal;HPM_P1;HPM_P2
2022/06/24 00:01:24;;;;;;;;;;;;;;;23.49;59.38;100496.50;5027652;28;19919;-86
2022/06/24 00:03:49;;;;;;;;;;;;;;;23.59;58.30;100496.44;5021199;28;19921;-86
2022/06/24 00:06:15;;;;;;;;;;;;;;;23.72;58.50;100502.34;5024012;28;19924;-87
2022/06/24 00:08:51;;;;;;;;;;;;;;;23.82;57.20;100537.34;5025086;28;19948;-86
2022/06/24 00:11:16;;;;;;;;;;;;;;;23.67;61.91;100567.56;5022531;28;19913;-86
2022/06/24 00:13:43;;;;;;;;;;;;;;;23.61;60.88;100586.22;5019157;28;19913;-86
2022/06/24 00:16:09;;;;;;;;;;;;;;;23.39;62.18;100601.81;5024515;28;19920;-88
2022/06/24 00:18:34;;;;;;;;;;;;;;;23.21;62.38;100605.44;5023661;28;19912;-87
2022/06/24 00:20:59;;;;;;;;;;;;;;;23.07;64.50;100614.88;5022249;28;20126;-88
2022/06/24 00:23:24;;;;;;;;;;;;;;;22.86;64.16;100659.06;5018703;28;19932;-88
2022/06/24 00:25:50;;;;;;;;;;;;;;;22.64;63.45;100670.16;5020344;28;20468;-92
2022/06/24 00:28:15;;;;;;;;;;;;;;;22.31;65.25;100682.22;5025312;28;20466;-89
2022/06/24 00:30:40;;;;;;;;;;;;;;;22.13;64.76;100676.66;5026013;28;20280;-89
2022/06/24 00:33:08;;;;;;;;;;;;;;;21.89;67.88;100691.34;5024836;28;20117;-90
2022/06/24 00:35:41;;;;;;;;;;;;;;;21.74;67.28;100710.72;5021851;28;19916;-90
2022/06/24 00:38:25;;;;;;;;;;;;;;;21.54;69.54;100720.53;5021179;28;20376;-90
2022/06/24 00:41:12;;;;;;;;;;;;;;;21.55;68.10;100715.03;5024139;28;19970;-90
2022/06/24 00:43:37;;;;;;;;;;;;;;;21.49;66.32;100703.94;5021718;28;20380;-89
2022/06/24 00:46:05;;;;;;;;;;;;;;;21.57;67.79;100691.53;5025622;28;19913;-90
2022/06/24 00:48:33;;;;;;;;;;;;;;;21.62;66.24;100674.97;5022293;28;19947;-89
2022/06/24 00:50:59;;;;;;;;;;;;;;;21.56;66.74;100664.78;5025427;28;19913;-89
2022/06/24 00:53:24;;;;;;;;;;;;;;;21.50;66.71;100660.78;5022778;28;20287;-89
2022/06/24 00:55:49;;;;;;;;;;;;;;;21.37;67.02;100673.63;5025701;28;19913;-88
2022/06/24 00:58:16;;;;;;;;;;;;;;;21.20;67.85;100680.44;5027410;28;19920;-87
2022/06/24 01:00:45;;;;;;;;;;;;;;;20.94;67.34;100665.72;5022362;28;19916;-87
2022/06/24 01:03:13;;;;;;;;;;;;;;;20.84;69.04;100668.34;5020515;28;19933;-86
2022/06/24 01:05:39;;;;;;;;;;;;;;;20.70;66.96;100660.63;5033627;28;19912;-87
2022/06/24 01:08:06;;;;;;;;;;;;;;;20.62;67.52;100639.78;5026860;28;19913;-87
2022/06/24 01:10:32;;;;;;;;;;;;;;;20.59;70.19;100630.16;5026081;28;19917;-87
2022/06/24 01:12:57;;;;;;;;;;;;;;;20.47;67.82;100620.47;5022568;28;19967;-87
2022/06/24 01:15:22;;;;;;;;;;;;;;;20.45;68.10;100633.13;5019126;28;21594;-87
2022/06/24 01:17:48;;;;;;;;;;;;;;;20.41;67.46;100628.16;5021907;28;19916;-86
2022/06/24 01:20:13;;;;;;;;;;;;;;;20.43;67.14;100626.22;5022502;28;19984;-86
2022/06/24 01:22:39;;;;;;;;;;;;;;;20.47;67.04;100616.88;5020913;28;19963;-87
2022/06/24 01:25:05;;;;;;;;;;;;;;;20.50;65.99;100619.34;5021785;28;19923;-87
2022/06/24 01:27:30;;;;;;;;;;;;;;;20.52;65.75;100620.09;5024051;28;19916;-87
2022/06/24 01:29:55;;;;;;;;;;;;;;;20.49;66.00;100615.81;5017968;28;19925;-87
2022/06/24 01:32:21;;;;;;;;;;;;;;;20.43;65.20;100610.09;5020361;28;20291;-88
2022/06/24 01:34:46;;;;;;;;;;;;;;;20.45;65.55;100613.50;5016427;28;20287;-87
2022/06/24 01:37:11;;;;;;;;;;;;;;;20.44;65.19;100606.41;5025749;28;19979;-87
2022/06/24 01:39:37;;;;;;;;;;;;;;;20.48;65.87;100614.13;5020882;28;19923;-88
2022/06/24 01:42:02;;;;;;;;;;;;;;;20.44;66.07;100606.41;5025742;28;19923;-87
2022/06/24 01:44:27;;;;;;;;;;;;;;;20.41;65.08;100590.56;5021887;28;19912;-87
2022/06/24 01:46:52;;;;;;;;;;;;;;;20.46;64.70;100581.13;5023823;28;19912;-87
2022/06/24 01:49:18;;;;;;;;;;;;;;;20.50;65.46;100579.91;5019223;28;20003;-88
2022/06/24 01:51:46;;;;;;;;;;;;;;;20.47;65.39;100584.66;5021190;28;19924;-88
2022/06/24 01:54:11;;;;;;;;;;;;;;;20.51;65.78;100581.59;5020532;28;20367;-88
2022/06/24 01:56:36;;;;;;;;;;;;;;;20.53;64.78;100576.97;5027539;28;19956;-88
2022/06/24 01:59:02;;;;;;;;;;;;;;;20.56;64.41;100578.53;5025839;28;19921;-88
2022/06/24 02:01:27;;;;;;;;;;;;;;;20.61;63.97;100579.84;5020125;28;19925;-88
2022/06/24 02:03:52;;;;;;;;;;;;;;;20.64;63.77;100587.63;5018068;28;19917;-88
2022/06/24 02:06:17;;;;;;;;;;;;;;;20.63;64.05;100585.94;5025013;28;19921;-88
2022/06/24 02:08:43;;;;;;;;;;;;;;;20.64;64.39;100576.88;5022249;28;19952;-88
2022/06/24 02:13:51;;;;;;;;;;;;;;;20.63;64.16;100574.34;5027211;28;19944;-87
2022/06/24 02:16:18;;;;;;;;;;;;;;;20.66;63.90;100579.47;5028080;28;19921;-88
2022/06/24 02:18:44;;;;;;;;;;;;;;;20.53;65.37;100578.81;5022209;28;19920;-88
2022/06/24 02:21:09;;;;;;;;;;;;;;;20.41;65.57;100586.03;5025243;28;19917;-88
2022/06/24 02:23:35;;;;;;;;;;;;;;;20.48;64.98;100583.72;5023272;28;19979;-88
2022/06/24 02:26:00;;;;;;;;;;;;;;;20.54;64.89;100583.19;5023737;28;20440;-88
2022/06/24 02:28:25;;;;;;;;;;;;;;;20.57;64.96;100577.56;5028177;28;20395;-88
2022/06/24 02:30:54;;;;;;;;;;;;;;;20.64;64.71;100579.56;5029128;28;20280;-88
2022/06/24 02:33:20;;;;;;;;;;;;;;;20.61;64.73;100592.41;5025335;28;19967;-88
2022/06/24 02:35:45;;;;;;;;;;;;;;;20.49;65.17;100596.16;5029998;28;19916;-88
2022/06/24 02:38:10;;;;;;;;;;;;;;;20.48;64.63;100589.94;5023333;28;19966;-88
2022/06/24 02:40:48;;;;;;;;;;;;;;;20.49;64.89;100578.22;5026925;28;19986;-88
2022/06/24 02:43:19;;;;;;;;;;;;;;;20.52;64.13;100569.06;5025723;28;19940;-88
2022/06/24 02:45:45;;;;;;;;;;;;;;;20.49;65.78;100574.69;5032176;28;19915;-88
2022/06/24 02:48:11;;;;;;;;;;;;;;;20.47;64.51;100572.13;5027431;28;20439;-88
2022/06/24 02:50:38;;;;;;;;;;;;;;;20.51;64.92;100575.38;5030520;28;20000;-88
2022/06/24 02:53:03;;;;;;;;;;;;;;;20.55;64.22;100566.94;5021559;28;19921;-88
2022/06/24 02:55:28;;;;;;;;;;;;;;;20.55;66.75;100558.03;5027778;28;20288;-87
2022/06/24 02:57:53;;;;;;;;;;;;;;;20.59;65.81;100548.72;5026893;28;19991;-87
2022/06/24 03:00:18;;;;;;;;;;;;;;;20.62;66.97;100545.78;5028397;28;19916;-88
2022/06/24 03:02:44;;;;;;;;;;;;;;;20.59;67.03;100551.41;5019779;28;19917;-87
2022/06/24 03:05:10;;;;;;;;;;;;;;;20.53;68.12;100539.38;5025749;28;20007;-87
2022/06/24 03:07:35;;;;;;;;;;;;;;;20.51;66.88;100535.94;5030205;28;19932;-87
2022/06/24 03:10:01;;;;;;;;;;;;;;;20.51;67.06;100529.72;5032042;28;20376;-87
2022/06/24 03:12:26;;;;;;;;;;;;;;;20.49;66.88;100537.09;5035187;28;20374;-88
2022/06/24 03:14:51;;;;;;;;;;;;;;;20.51;67.47;100527.03;5024908;28;19928;-88
2022/06/24 03:17:16;;;;;;;;;;;;;;;20.48;67.03;100522.81;5025934;28;19943;-88
2022/06/24 03:19:42;;;;;;;;;;;;;;;20.36;65.42;100513.94;5024339;28;19921;-88
2022/06/24 03:22:07;;;;;;;;;;;;;;;20.24;68.07;100508.78;5017460;28;19924;-88
2022/06/24 03:24:32;;;;;;;;;;;;;;;20.22;67.24;100510.75;5014158;28;20213;-88
2022/06/24 03:26:57;;;;;;;;;;;;;;;20.16;67.16;100500.53;5029822;28;20291;-88
2022/06/24 03:29:22;;;;;;;;;;;;;;;20.15;67.83;100501.53;5016749;28;20537;-88
2022/06/24 03:31:48;;;;;;;;;;;;;;;20.14;68.68;100487.22;5030310;28;19912;-88
2022/06/24 03:34:13;;;;;;;;;;;;;;;20.21;68.08;100492.94;5023751;28;20018;-88
2022/06/24 03:36:38;;;;;;;;;;;;;;;20.23;66.15;100502.53;5022574;28;19946;-88
2022/06/24 03:39:03;;;;;;;;;;;;;;;20.23;66.84;100499.00;5017401;28;19927;-88
2022/06/24 03:41:28;;;;;;;;;;;;;;;20.24;66.09;100506.09;5023090;28;19917;-88
2022/06/24 03:43:54;;;;;;;;;;;;;;;20.25;66.12;100505.13;5023506;28;19971;-88
2022/06/24 03:46:19;;;;;;;;;;;;;;;20.26;65.18;100507.66;5024710;28;19912;-88
2022/06/24 03:48:44;;;;;;;;;;;;;;;20.20;66.25;100502.81;5024799;28;19913;-88
2022/06/24 03:51:09;;;;;;;;;;;;;;;20.27;66.72;100495.09;5025826;28;19914;-88
2022/06/24 03:53:34;;;;;;;;;;;;;;;20.30;65.13;100490.31;5024354;28;20685;-88
2022/06/24 03:56:00;;;;;;;;;;;;;;;20.21;65.42;100499.16;5020827;28;19920;-88
2022/06/24 03:58:25;;;;;;;;;;;;;;;20.12;66.74;100500.78;5028113;28;19916;-88
2022/06/24 04:00:50;;;;;;;;;;;;;;;20.10;66.96;100502.78;5021458;28;19914;-88
2022/06/24 04:03:15;;;;;;;;;;;;;;;20.03;67.28;100506.94;5013914;28;20184;-88
2022/06/24 04:05:41;;;;;;;;;;;;;;;19.92;69.04;100508.84;5027168;28;19992;-88
2022/06/24 04:08:07;;;;;;;;;;;;;;;19.77;69.01;100529.75;5027933;28;19916;-88
2022/06/24 04:10:32;;;;;;;;;;;;;;;19.81;67.90;100540.09;5018653;28;20106;-89
2022/06/24 04:12:57;;;;;;;;;;;;;;;19.92;67.37;100549.94;5031631;28;19948;-89
2022/06/24 04:15:23;;;;;;;;;;;;;;;20.00;65.97;100549.28;5021484;28;19962;-89
2022/06/24 04:17:49;;;;;;;;;;;;;;;20.07;66.09;100545.13;5029028;28;19905;-89
2022/06/24 04:20:15;;;;;;;;;;;;;;;20.00;66.91;100551.97;5013063;28;19921;-89
2022/06/24 04:22:41;;;;;;;;;;;;;;;19.99;66.46;100556.47;5020301;28;21349;-88
2022/06/24 04:25:06;;;;;;;;;;;;;;;20.03;65.99;100554.41;5017428;28;19924;-89
2022/06/24 04:27:31;;;;;;;;;;;;;;;20.04;67.71;100556.09;5016334;28;20261;-89
2022/06/24 04:29:57;;;;;;;;;;;;;;;20.02;66.44;100550.88;5025120;28;20007;-89
2022/06/24 04:32:23;;;;;;;;;;;;;;;19.98;66.03;100548.56;5027325;28;19984;-89
2022/06/24 04:34:48;;;;;;;;;;;;;;;20.01;65.99;100553.69;5021164;28;19949;-88
2022/06/24 04:37:13;;;;;;;;;;;;;;;20.02;68.00;100552.69;5026450;28;20430;-89
2022/06/24 04:39:38;;;;;;;;;;;;;;;19.98;66.27;100544.06;5027485;28;19920;-89
2022/06/24 04:42:04;;;;;;;;;;;;;;;20.05;66.34;100547.06;5027187;28;19963;-89
2022/06/24 04:44:29;;;;;;;;;;;;;;;20.09;66.36;100553.88;5017149;28;20012;-89
2022/06/24 04:46:54;;;;;;;;;;;;;;;20.13;66.52;100545.44;5016082;28;19923;-88
2022/06/24 04:49:19;;;;;;;;;;;;;;;20.17;66.39;100546.03;5018899;28;19952;-89
2022/06/24 04:51:44;;;;;;;;;;;;;;;20.24;66.75;100549.06;5027125;28;19955;-89
2022/06/24 04:54:10;;;;;;;;;;;;;;;20.23;66.19;100542.81;5029756;28;19952;-89
2022/06/24 04:56:35;;;;;;;;;;;;;;;20.24;65.87;100533.81;5037307;28;20387;-88
2022/06/24 04:59:00;;;;;;;;;;;;;;;20.28;66.66;100532.53;5035827;28;20318;-89
2022/06/24 05:01:25;;;;;;;;;;;;;;;20.30;67.03;100541.31;5020169;28;20065;-88
2022/06/24 05:03:50;;;;;;;;;;;;;;;20.26;67.56;100550.63;5026624;28;20617;-88
2022/06/24 05:06:16;;;;;;;;;;;;;;;20.29;65.73;100552.19;5024217;28;19920;-88
2022/06/24 05:08:41;;;;;;;;;;;;;;;20.29;66.24;100557.56;5023897;28;20261;-89
2022/06/24 05:11:06;;;;;;;;;;;;;;;20.30;64.90;100557.44;5022852;28;19962;-88
2022/06/24 05:13:31;;;;;;;;;;;;;;;20.17;66.52;100562.13;5021271;28;19909;-89
2022/06/24 05:15:58;;;;;;;;;;;;;;;20.09;67.50;100560.09;5028916;28;19912;-88
2022/06/24 05:18:23;;;;;;;;;;;;;;;20.03;67.00;100568.66;5021124;28;19913;-89
2022/06/24 05:20:48;;;;;;;;;;;;;;;20.10;66.01;100561.81;5028398;28;19971;-89
2022/06/24 05:23:13;;;;;;;;;;;;;;;20.18;65.48;100557.59;5025156;28;19916;-88
2022/06/24 05:25:39;;;;;;;;;;;;;;;20.27;67.36;100567.56;5023626;28;19921;-88
2022/06/24 05:28:04;;;;;;;;;;;;;;;20.27;67.62;100563.03;5020383;28;20273;-89
2022/06/24 05:30:29;;;;;;;;;;;;;;;20.22;67.73;100565.28;5023179;28;20347;-89
2022/06/24 05:32:54;;;;;;;;;;;;;;;20.17;67.68;100569.34;5021423;28;19923;-89
2022/06/24 05:35:19;;;;;;;;;;;;;;;20.13;67.36;100574.94;5024591;28;19959;-89
2022/06/24 05:37:45;;;;;;;;;;;;;;;20.13;70.57;100579.47;5023410;28;19921;-89
2022/06/24 05:40:10;;;;;;;;;;;;;;;20.02;68.67;100580.38;5023007;28;19947;-88
2022/06/24 05:42:36;;;;;;;;;;;;;;;19.99;68.09;100577.09;5023559;28;19921;-88
2022/06/24 05:45:01;;;;;;;;;;;;;;;20.08;66.42;100571.81;5029362;28;20004;-89
2022/06/24 05:47:29;;;;;;;;;;;;;;;20.13;66.97;100576.78;5029201;28;19917;-89
2022/06/24 05:49:54;;;;;;;;;;;;;;;20.15;68.73;100571.31;5026099;28;20284;-89
2022/06/24 05:55:05;;;;;;;;;;;;;;;20.15;68.63;100563.25;5011130;28;19916;-89
2022/06/24 05:57:30;;;;;;;;;;;;;;;20.10;67.51;100561.81;5036477;28;20288;-89
2022/06/24 05:59:56;;;;;;;;;;;;;;;20.11;70.85;100568.03;5028643;28;19921;-89
2022/06/24 06:02:22;;;;;;;;;;;;;;;20.03;70.58;100565.13;5027569;28;20470;-89
2022/06/24 06:04:48;;;;;;;;;;;;;;;20.06;72.43;100563.06;5026539;28;19966;-89
2022/06/24 06:07:13;;;;;;;;;;;;;;;20.06;68.93;100564.88;5032221;28;20288;-89
2022/06/24 06:09:38;;;;;;;;;;;;;;;20.08;71.74;100562.91;5025830;28;19952;-88
2022/06/24 06:12:03;;;;;;;;;;;;;;;20.12;70.34;100561.69;5024539;28;20013;-89
2022/06/24 06:14:29;;;;;;;;;;;;;;;20.16;69.01;100567.63;5019723;28;19944;-89
2022/06/24 06:16:54;;;;;;;;;;;;;;;20.27;69.27;100567.56;5027220;28;20004;-90
2022/06/24 06:19:19;;;;;;;;;;;;;;;20.41;69.49;100569.06;5020813;28;20296;-90
2022/06/24 06:21:45;;;;;;;;;;;;;;;20.49;68.30;100570.16;5027498;28;19913;-90
2022/06/24 06:24:10;;;;;;;;;;;;;;;20.53;68.93;100560.00;5026712;28;19921;-90
2022/06/24 06:26:35;;;;;;;;;;;;;;;20.48;68.94;100567.63;5029537;28;20000;-90
2022/06/24 06:29:01;;;;;;;;;;;;;;;20.56;68.66;100570.47;5028923;28;20004;-90
2022/06/24 06:31:28;;;;;;;;;;;;;;;20.63;67.47;100567.13;5027263;28;19960;-91
2022/06/24 06:33:53;;;;;;;;;;;;;;;20.67;68.65;100574.94;5030538;28;19962;-91
2022/06/24 06:36:18;;;;;;;;;;;;;;;20.67;67.80;100581.16;5026579;28;20325;-90
2022/06/24 06:38:44;;;;;;;;;;;;;;;20.61;69.13;100571.78;5025638;28;19916;-90
2022/06/24 06:41:09;;;;;;;;;;;;;;;20.58;69.57;100581.94;5028630;28;19964;-89
2022/06/24 06:43:34;;;;;;;;;;;;;;;20.35;69.11;100583.88;5025019;28;19920;-89
2022/06/24 06:45:59;;;;;;;;;;;;;;;20.27;68.87;100578.31;5024579;28;20375;-88
2022/06/24 06:48:25;;;;;;;;;;;;;;;20.32;69.62;100582.28;5019395;28;19917;-89
2022/06/24 06:50:54;;;;;;;;;;;;;;;20.30;69.22;100586.97;5022172;28;19909;-88
2022/06/24 06:53:19;;;;;;;;;;;;;;;20.24;69.52;100592.84;5037334;28;19920;-89
2022/06/24 06:55:45;;;;;;;;;;;;;;;20.25;69.57;100586.50;5022994;28;20316;-89
2022/06/24 06:58:10;;;;;;;;;;;;;;;20.32;70.35;100584.97;5029889;28;19912;-89
2022/06/24 07:00:35;;;;;;;;;;;;;;;20.37;69.82;100577.38;5024885;28;20388;-88
2022/06/24 07:03:00;;;;;;;;;;;;;;;20.41;67.84;100577.97;5026316;28;19920;-89
2022/06/24 07:05:25;;;;;;;;;;;;;;;20.41;70.57;100575.28;5021612;28;19983;-89
2022/06/24 07:07:51;;;;;;;;;;;;;;;20.43;69.33;100570.66;4992819;28;19912;-89
2022/06/24 07:10:16;;;;;;;;;;;;;;;20.41;69.31;100566.38;5027327;28;19917;-89
2022/06/24 07:12:41;;;;;;;;;;;;;;;20.41;69.36;100558.34;5031181;28;20031;-89
2022/06/24 07:15:06;;;;;;;;;;;;;;;20.41;70.24;100563.72;5028492;28;19917;-89
2022/06/24 07:17:32;;;;;;;;;;;;;;;20.44;68.84;100556.25;5024948;28;20368;-89
2022/06/24 07:19:57;;;;;;;;;;;;;;;20.50;69.51;100562.94;5029532;28;19916;-89
2022/06/24 07:22:22;;;;;;;;;;;;;;;20.51;68.97;100557.44;5024238;28;19963;-89
2022/06/24 07:24:48;;;;;;;;;;;;;;;20.60;69.47;100553.94;5024218;28;19955;-89
2022/06/24 07:27:13;;;;;;;;;;;;;;;20.71;70.42;100552.19;5027111;28;20298;-88
2022/06/24 07:29:38;;;;;;;;;;;;;;;20.77;69.79;100549.81;5029303;28;20347;-90
2022/06/24 07:32:04;;;;;;;;;;;;;;;20.82;68.73;100535.97;5024021;28;19936;-89
2022/06/24 07:34:32;;;;;;;;;;;;;;;20.79;68.85;100533.53;5030522;28;20012;-89
2022/06/24 07:36:59;;;;;;;;;;;;;;;20.74;68.50;100539.31;5027000;28;19917;-89
2022/06/24 07:39:24;;;;;;;;;;;;;;;20.77;68.83;100546.28;5026293;28;19916;-89
2022/06/24 07:41:49;;;;;;;;;;;;;;;20.84;68.33;100552.78;5025769;28;19925;-89
2022/06/24 07:44:14;;;;;;;;;;;;;;;20.89;68.60;100564.88;5029445;28;20360;-89
2022/06/24 07:46:39;;;;;;;;;;;;;;;20.87;68.79;100574.03;5024986;28;19921;-90
2022/06/24 07:49:05;;;;;;;;;;;;;;;20.76;70.29;100577.66;5027463;28;19920;-91
2022/06/24 07:51:30;;;;;;;;;;;;;;;20.61;73.49;100585.22;5023583;28;19924;-90
2022/06/24 07:53:55;;;;;;;;;;;;;;;20.59;71.01;100586.31;5024339;28;20365;-89
2022/06/24 07:59:05;;;;;;;;;;;;;;;20.63;72.31;100590.47;5026302;28;19967;-90
2022/06/24 08:01:30;;;;;;;;;;;;;;;20.69;70.72;100587.22;5025161;28;19928;-90
2022/06/24 08:03:55;;;;;;;;;;;;;;;20.75;70.90;100578.66;5025499;28;20364;-89
2022/06/24 08:06:21;;;;;;;;;;;;;;;20.84;69.85;100585.03;5025291;28;20395;-89
2022/06/24 08:08:46;;;;;;;;;;;;;;;20.89;69.56;100583.69;5025503;28;20318;-90
2022/06/24 08:11:11;;;;;;;;;;;;;;;20.95;70.88;100578.75;5025090;28;20361;-90
2022/06/24 08:13:36;;;;;;;;;;;;;;;20.93;69.27;100576.16;5026466;28;19947;-90
2022/06/24 08:16:02;;;;;;;;;;;;;;;20.88;69.94;100587.31;5024966;28;20333;-89
2022/06/24 08:18:27;;;;;;;;;;;;;;;20.87;68.61;100582.94;5011546;28;19913;-90
2022/06/24 08:20:52;;;;;;;;;;;;;;;20.92;68.90;100587.91;5025612;28;19971;-89
2022/06/24 08:23:18;;;;;;;;;;;;;;;20.99;69.22;100590.94;5019818;28;20434;-89
2022/06/24 08:25:43;;;;;;;;;;;;;;;21.00;71.53;100581.88;5023151;28;19960;-89
2022/06/24 08:28:08;;;;;;;;;;;;;;;20.91;71.40;100578.16;5018322;28;19967;-88
2022/06/24 08:30:34;;;;;;;;;;;;;;;20.86;71.80;100581.25;5026732;28;20288;-88
2022/06/24 08:33:00;;;;;;;;;;;;;;;20.91;70.84;100586.22;5020421;28;19956;-88
2022/06/24 08:35:25;;;;;;;;;;;;;;;21.00;69.70;100577.34;5022163;28;19921;-88
2022/06/24 08:37:50;;;;;;;;;;;;;;;21.13;70.11;100575.28;5024333;28;20413;-88
2022/06/24 08:40:16;;;;;;;;;;;;;;;21.30;69.84;100578.28;5032472;28;20405;-88
2022/06/24 08:42:43;;;;;;;;;;;;;;;21.42;67.76;100577.22;5023894;28;19960;-89
2022/06/24 08:45:10;;;;;;;;;;;;;;;21.57;70.91;100575.84;5025662;28;19920;-89
2022/06/24 08:47:35;;;;;;;;;;;;;;;21.70;69.22;100575.59;5040280;28;20004;-89
2022/06/24 08:50:00;;;;;;;;;;;;;;;21.89;68.15;100588.22;5028319;28;20005;-88
2022/06/24 08:52:25;;;;;;;;;;;;;;;22.07;69.34;100588.38;5020059;28;20390;-88
2022/06/24 08:54:51;;;;;;;;;;;;;;;22.25;67.81;100589.38;5024213;28;19916;-89
2022/06/24 08:57:16;;;;;;;;;;;;;;;22.41;65.89;100580.69;5019585;28;19971;-89
2022/06/24 08:59:45;;;;;;;;;;;;;;;22.58;66.95;100579.97;5024719;28;20039;-89
2022/06/24 09:02:14;;;;;;;;;;;;;;;22.75;65.84;100572.94;5021724;28;19925;-89
2022/06/24 09:04:43;;;;;;;;;;;;;;;22.90;66.15;100566.13;5024116;28;19913;-89
2022/06/24 09:07:15;;;;;;;;;;;;;;;23.13;64.62;100576.56;5022477;28;20279;-89
2022/06/24 09:09:41;;;;;;;;;;;;;;;23.46;64.11;100574.25;5026486;28;19921;-90
2022/06/24 09:12:06;;;;;;;;;;;;;;;24.08;64.13;100575.22;5025304;28;19924;-89
2022/06/24 09:14:48;;;;;;;;;;;;;;;24.23;63.11;100567.41;5027684;28;19967;-89
2022/06/24 09:17:13;;;;;;;;;;;;;;;24.31;62.43;100565.63;5020163;28;19956;-89
2022/06/24 09:19:39;;;;;;;;;;;;;;;24.35;63.20;100558.91;5032988;28;19960;-90
2022/06/24 09:22:05;;;;;;;;;;;;;;;24.34;62.11;100568.03;5023815;28;19917;-90
2022/06/24 09:24:44;;;;;;;;;;;;;;;24.35;62.83;100566.16;5018305;28;19967;-89
2022/06/24 09:27:09;;;;;;;;;;;;;;;24.47;62.62;100562.22;5020869;28;20217;-90
2022/06/24 09:29:34;;;;;;;;;;;;;;;24.37;63.12;100567.72;5023116;28;19936;-90
2022/06/24 09:32:03;;;;;;;;;;;;;;;24.31;62.74;100573.72;5021460;28;19959;-90
2022/06/24 09:34:28;;;;;;;;;;;;;;;24.66;62.08;100572.81;5028587;28;19916;-90
2022/06/24 09:36:54;;;;;;;;;;;;;;;25.08;61.22;100568.50;5030367;28;19913;-90
2022/06/24 09:39:21;;;;;;;;;;;;;;;25.15;60.68;100573.13;5016497;28;20000;-89
2022/06/24 09:41:48;;;;;;;;;;;;;;;25.12;60.46;100573.44;5023441;28;19928;-91
2022/06/24 09:44:14;;;;;;;;;;;;;;;25.19;60.08;100569.09;5028072;28;19944;-90
2022/06/24 09:46:40;;;;;;;;;;;;;;;25.21;59.50;100571.63;5032201;28;19913;-90
2022/06/24 09:49:06;;;;;;;;;;;;;;;25.28;59.95;100566.41;5021940;28;19913;-90
2022/06/24 09:51:31;;;;;;;;;;;;;;;25.53;59.59;100570.03;5027650;28;19916;-91
2022/06/24 09:53:57;;;;;;;;;;;;;;;25.96;59.08;100574.38;5031035;28;20443;-90
2022/06/24 09:56:23;;;;;;;;;;;;;;;26.51;58.29;100565.56;5024741;28;19920;-92
2022/06/24 10:01:33;;;;;;;;;;;;;;;26.25;57.80;100570.31;5022835;28;19963;-91
2022/06/24 10:03:59;;;;;;;;;;;;;;;26.18;57.85;100575.56;5028785;28;20403;-90
2022/06/24 10:06:24;;;;;;;;;;;;;;;26.67;55.89;100568.28;5020454;28;19949;-89
2022/06/24 10:08:50;;;;;;;;;;;;;;;26.73;57.07;100563.19;5023795;28;19944;-88
2022/06/24 10:11:16;;;;;;;;;;;;;;;27.19;56.64;100553.38;5020549;28;20360;-91
2022/06/24 10:13:42;;;;;;;;;;;;;;;27.41;55.74;100568.00;5029060;28;19924;-90
2022/06/24 10:16:07;;;;;;;;;;;;;;;27.15;55.04;100562.91;5019668;28;19949;-90
2022/06/24 10:18:35;;;;;;;;;;;;;;;26.65;56.51;100566.75;5023028;28;19955;-91
2022/06/24 10:21:02;;;;;;;;;;;;;;;26.15;54.67;100567.78;5029244;28;19929;-91
2022/06/24 10:23:34;;;;;;;;;;;;;;;25.55;57.88;100559.88;5027719;28;20455;-88
2022/06/24 10:26:07;;;;;;;;;;;;;;;25.52;58.53;100576.47;5018904;28;19985;-90
2022/06/24 10:28:32;;;;;;;;;;;;;;;25.50;57.75;100575.75;5020328;28;19925;-89
2022/06/24 10:30:58;;;;;;;;;;;;;;;25.60;57.97;100574.63;5029521;28;19920;-89
2022/06/24 10:33:26;;;;;;;;;;;;;;;25.79;58.26;100575.38;5028363;28;20319;-90
2022/06/24 10:35:54;;;;;;;;;;;;;;;25.86;57.81;100582.66;5029482;28;19995;-90
2022/06/24 10:38:20;;;;;;;;;;;;;;;25.53;57.00;100610.63;5029330;28;19956;-89
2022/06/24 10:40:47;;;;;;;;;;;;;;;24.61;57.29;100610.28;5034839;28;19916;-89
2022/06/24 10:43:12;;;;;;;;;;;;;;;23.79;58.64;100608.72;5020295;28;20360;-89
2022/06/24 10:45:37;;;;;;;;;;;;;;;23.13;59.13;100615.16;5028264;28;20007;-89
2022/06/24 10:48:03;;;;;;;;;;;;;;;22.57;60.89;100617.81;5027544;28;19974;-90
2022/06/24 10:50:28;;;;;;;;;;;;;;;22.40;62.07;100622.09;5032107;28;19913;-88
2022/06/24 10:53:00;;;;;;;;;;;;;;;21.60;63.07;100620.47;5025972;28;19913;-89
2022/06/24 10:55:30;;;;;;;;;;;;;;;21.26;64.38;100614.50;5028194;28;19925;-88
2022/06/24 10:58:00;;;;;;;;;;;;;;;20.96;63.63;100629.66;5025644;28;19956;-88
2022/06/24 11:00:38;;;;;;;;;;;;;;;20.91;63.53;100634.59;5027478;28;19935;-88
2022/06/24 11:03:03;;;;;;;;;;;;;;;20.96;63.32;100624.28;5029214;28;20004;-87
2022/06/24 11:05:32;;;;;;;;;;;;;;;21.08;62.94;100612.47;5027337;28;20431;-88
2022/06/24 11:07:58;;;;;;;;;;;;;;;21.12;63.21;100602.28;5021387;28;20421;-90
2022/06/24 11:10:26;;;;;;;;;;;;;;;21.18;63.38;100596.38;5024199;28;19971;-90
2022/06/24 11:12:53;;;;;;;;;;;;;;;21.19;64.51;100597.22;5018770;28;20015;-89
2022/06/24 11:15:18;;;;;;;;;;;;;;;21.13;64.91;100594.09;5023509;28;19913;-89
2022/06/24 11:17:44;;;;;;;;;;;;;;;21.12;64.12;100597.78;5022116;28;19917;-88
2022/06/24 11:20:13;;;;;;;;;;;;;;;21.05;64.70;100595.75;5023125;28;19921;-89
2022/06/24 11:22:42;;;;;;;;;;;;;;;21.07;64.46;100593.78;5025681;28;19988;-88
2022/06/24 11:25:07;;;;;;;;;;;;;;;21.34;65.01;100585.97;5025671;28;19943;-89
2022/06/24 11:27:36;;;;;;;;;;;;;;;21.67;63.67;100588.47;5019577;28;20594;-90
2022/06/24 11:30:02;;;;;;;;;;;;;;;21.90;63.16;100581.81;5027573;28;20291;-90
2022/06/24 11:32:27;;;;;;;;;;;;;;;22.12;62.87;100583.44;5024821;28;19928;-90
2022/06/24 11:34:52;;;;;;;;;;;;;;;22.80;61.62;100565.31;5024397;28;19952;-90
2022/06/24 11:37:22;;;;;;;;;;;;;;;23.46;62.14;100568.84;5026213;28;20765;-89
2022/06/24 11:39:50;;;;;;;;;;;;;;;23.76;61.00;100563.13;5022572;28;19924;-89
2022/06/24 11:42:16;;;;;;;;;;;;;;;24.11;59.74;100566.81;5025540;28;19931;-90
2022/06/24 11:44:41;;;;;;;;;;;;;;;24.18;60.59;100575.97;5017820;28;19917;-91
2022/06/24 11:47:07;;;;;;;;;;;;;;;24.43;58.98;100569.81;5024053;28;20495;-91
2022/06/24 11:49:33;;;;;;;;;;;;;;;24.46;59.28;100576.75;5013368;28;19953;-91
2022/06/24 11:51:58;;;;;;;;;;;;;;;24.42;59.59;100567.25;5024328;28;19917;-90
2022/06/24 11:54:27;;;;;;;;;;;;;;;24.77;58.72;100579.81;5023628;28;19963;-92
2022/06/24 11:56:52;;;;;;;;;;;;;;;24.86;57.02;100586.13;5023175;28;20395;-90
2022/06/24 11:59:19;;;;;;;;;;;;;;;24.82;58.11;100576.66;5022286;28;19927;-90
2022/06/24 12:01:45;;;;;;;;;;;;;;;24.83;58.32;100573.78;5021568;28;19929;-91
2022/06/24 12:04:11;;;;;;;;;;;;;;;25.06;57.11;100573.22;5027212;28;20368;-91
2022/06/24 12:06:37;;;;;;;;;;;;;;;25.39;56.67;100569.66;5025135;28;20375;-91
2022/06/24 12:09:03;;;;;;;;;;;;;;;25.49;56.22;100574.91;5024568;28;19913;-90
2022/06/24 12:11:28;;;;;;;;;;;;;;;25.55;56.02;100568.84;5031287;28;19917;-90
2022/06/24 12:14:04;;;;;;;;;;;;;;;25.62;55.38;100566.34;5029232;28;20358;-90
2022/06/24 12:16:49;;;;;;;;;;;;;;;25.38;53.75;100559.00;5022015;28;19916;-90
2022/06/24 12:19:14;;;;;;;;;;;;;;;25.08;55.30;100566.66;5021352;28;20376;-91
2022/06/24 12:21:40;;;;;;;;;;;;;;;25.47;55.14;100568.00;5021381;28;19921;-89
2022/06/24 12:24:24;;;;;;;;;;;;;;;26.07;54.34;100568.63;5023777;28;19944;-91
2022/06/24 12:26:53;;;;;;;;;;;;;;;26.35;53.81;100569.13;5016249;28;19968;-91
2022/06/24 12:29:26;;;;;;;;;;;;;;;26.69;52.93;100576.22;5019718;28;19920;-91
2022/06/24 12:31:52;;;;;;;;;;;;;;;26.46;53.26;100567.97;5024318;28;19913;-91
2022/06/24 12:34:23;;;;;;;;;;;;;;;26.63;53.86;100564.22;5023303;28;19935;-90
2022/06/24 12:36:55;;;;;;;;;;;;;;;26.93;52.37;100568.00;5018064;28;19931;-91
2022/06/24 12:39:25;;;;;;;;;;;;;;;27.02;50.95;100557.97;5018808;28;19913;-92
2022/06/24 12:41:50;;;;;;;;;;;;;;;26.94;52.19;100561.56;5027406;28;20051;-90